createdAt,value
2022-12-04T00:01:20.056Z,1.55
2022-12-04T00:03:49.088Z,1.54
2022-12-04T00:06:20.628Z,1.54
2022-12-04T00:08:49.931Z,1.62
2022-12-04T00:11:21.844Z,1.66
2022-12-04T00:13:50.634Z,1.63
2022-12-04T00:16:21.356Z,1.62
2022-12-04T00:18:50.116Z,1.55
2022-12-04T00:21:21.250Z,1.51
2022-12-04T00:23:50.433Z,1.50
2022-12-04T00:26:20.784Z,1.54
2022-12-04T00:28:50.383Z,1.51
2022-12-04T00:31:20.802Z,1.56
2022-12-04T00:33:49.863Z,1.56
2022-12-04T00:36:21.686Z,1.59
2022-12-04T00:38:50.868Z,1.58
2022-12-04T00:41:20.872Z,1.55
2022-12-04T00:43:49.744Z,1.54
2022-12-04T00:46:18.753Z,1.52
2022-12-04T00:48:47.454Z,1.53
2022-12-04T00:51:19.842Z,1.56
2022-12-04T00:53:48.825Z,1.56
2022-12-04T00:56:19.999Z,1.52
2022-12-04T00:58:48.886Z,1.55
2022-12-04T01:01:19.603Z,1.67
2022-12-04T01:03:49.082Z,1.66
2022-12-04T01:06:24.189Z,1.57
2022-12-04T01:08:52.986Z,1.54
2022-12-04T01:11:22.392Z,1.57
2022-12-04T01:13:51.269Z,1.57
2022-12-04T01:16:21.544Z,1.57
2022-12-04T01:18:50.874Z,1.56
2022-12-04T01:21:19.968Z,1.62
2022-12-04T01:23:50.161Z,1.66
2022-12-04T01:26:18.891Z,1.65
2022-12-04T01:28:47.770Z,1.65
2022-12-04T01:31:18.465Z,1.61
2022-12-04T01:33:47.529Z,1.61
2022-12-04T01:36:18.825Z,1.63
2022-12-04T01:38:48.864Z,1.60
2022-12-04T01:41:21.140Z,1.58
2022-12-04T01:44:07.981Z,1.56
2022-12-04T01:46:36.630Z,1.56
2022-12-04T01:49:06.628Z,1.58
2022-12-04T01:51:38.863Z,1.59
2022-12-04T01:54:11.547Z,1.55
2022-12-04T01:56:43.325Z,1.58
2022-12-04T01:59:13.340Z,1.54
2022-12-04T02:01:45.661Z,1.54
2022-12-04T02:04:14.661Z,1.55
2022-12-04T02:06:43.335Z,1.58
2022-12-04T02:09:13.512Z,1.60
2022-12-04T02:11:47.531Z,1.58
2022-12-04T02:14:26.059Z,1.58
2022-12-04T02:17:01.015Z,1.62
2022-12-04T02:19:35.012Z,1.62
2022-12-04T02:22:08.611Z,1.62
2022-12-04T02:24:50.030Z,1.62
2022-12-04T02:27:29.650Z,1.63
2022-12-04T02:30:04.261Z,1.60
2022-12-04T02:32:39.608Z,1.60
2022-12-04T02:35:11.747Z,1.60
2022-12-04T02:37:42.473Z,1.60
2022-12-04T02:40:16.050Z,1.61
2022-12-04T02:42:46.810Z,1.62
2022-12-04T02:45:20.899Z,1.62
2022-12-04T02:47:49.656Z,1.63
2022-12-04T02:50:22.226Z,1.63
2022-12-04T02:52:53.772Z,1.66
2022-12-04T02:55:25.224Z,1.67
2022-12-04T02:57:59.081Z,1.67
2022-12-04T03:00:30.417Z,1.68
2022-12-04T03:03:02.591Z,1.70
2022-12-04T03:05:38.822Z,1.71
2022-12-04T03:08:11.523Z,1.70
2022-12-04T03:10:43.095Z,1.73
2022-12-04T03:13:14.821Z,1.70
2022-12-04T03:15:47.506Z,1.69
2022-12-04T03:18:20.027Z,1.71
2022-12-04T03:20:51.185Z,1.73
2022-12-04T03:23:21.841Z,1.69
2022-12-04T03:25:55.219Z,1.66
2022-12-04T03:28:28.836Z,1.71
2022-12-04T03:31:04.834Z,1.70
2022-12-04T03:33:36.899Z,1.69
2022-12-04T03:36:10.703Z,1.71
2022-12-04T03:38:45.730Z,1.72
2022-12-04T03:41:19.210Z,1.73
2022-12-04T03:43:52.106Z,1.72
2022-12-04T03:46:28.284Z,1.71
2022-12-04T03:49:01.280Z,1.70
2022-12-04T03:51:33.975Z,1.73
2022-12-04T03:54:06.444Z,1.73
2022-12-04T03:56:40.043Z,1.81
2022-12-04T03:59:12.195Z,1.78
2022-12-04T04:01:44.486Z,1.74
2022-12-04T04:04:17.532Z,1.74
2022-12-04T04:06:48.487Z,1.75
2022-12-04T04:09:20.386Z,1.72
2022-12-04T04:11:52.247Z,1.71
2022-12-04T04:14:41.922Z,1.74
2022-12-04T04:17:38.175Z,1.74
2022-12-04T04:20:27.924Z,1.73
2022-12-04T04:23:15.128Z,1.76
2022-12-04T04:25:44.737Z,1.79
2022-12-04T04:28:32.575Z,1.77
2022-12-04T04:31:07.783Z,1.77
2022-12-04T04:33:44.637Z,1.79
2022-12-04T04:36:19.054Z,1.78
2022-12-04T04:38:53.265Z,1.71
2022-12-04T04:41:27.594Z,1.73
2022-12-04T04:43:59.274Z,1.70
2022-12-04T04:46:32.308Z,1.73
2022-12-04T04:49:04.151Z,1.76
2022-12-04T04:51:34.848Z,1.71
2022-12-04T04:54:06.787Z,1.70
2022-12-04T04:56:41.995Z,1.70
2022-12-04T04:59:10.766Z,1.71
2022-12-04T05:01:40.862Z,1.70
2022-12-04T05:04:11.399Z,1.69
2022-12-04T05:06:40.258Z,1.72
2022-12-04T05:09:09.063Z,1.72
2022-12-04T05:11:37.714Z,1.75
2022-12-04T05:14:06.513Z,1.75
2022-12-04T05:16:35.246Z,1.76
2022-12-04T05:19:21.541Z,1.77
2022-12-04T05:21:51.449Z,1.77
2022-12-04T05:24:20.254Z,1.82
2022-12-04T05:26:48.950Z,1.78
2022-12-04T05:29:17.652Z,1.77
2022-12-04T05:31:46.288Z,1.78
2022-12-04T05:34:15.184Z,1.76
2022-12-04T05:36:43.938Z,1.79
2022-12-04T05:39:14.360Z,1.77
2022-12-04T05:41:43.280Z,1.77
2022-12-04T05:44:12.087Z,1.78
2022-12-04T05:46:40.972Z,1.81
2022-12-04T05:49:09.622Z,1.80
2022-12-04T05:51:38.438Z,1.81
2022-12-04T05:54:07.250Z,1.81
2022-12-04T05:56:37.500Z,1.80
2022-12-04T05:59:06.321Z,1.77
2022-12-04T06:01:35.286Z,1.78
2022-12-04T06:04:04.505Z,1.82
2022-12-04T06:06:33.676Z,1.80
2022-12-04T06:09:04.540Z,1.80
2022-12-04T06:11:37.418Z,1.80
2022-12-04T06:14:08.187Z,1.77
2022-12-04T06:16:38.574Z,1.76
2022-12-04T06:19:09.452Z,1.76
2022-12-04T06:21:39.981Z,1.80
2022-12-04T06:24:09.353Z,1.80
2022-12-04T06:26:57.592Z,1.75
2022-12-04T06:29:29.655Z,1.77
2022-12-04T06:31:59.547Z,1.80
2022-12-04T06:34:28.328Z,1.81
2022-12-04T06:36:56.977Z,1.77
2022-12-04T06:39:25.636Z,1.77
2022-12-04T06:41:56.110Z,1.82
2022-12-04T06:44:24.917Z,1.84
2022-12-04T06:46:54.913Z,1.80
2022-12-04T06:49:25.350Z,1.83
2022-12-04T06:51:54.088Z,1.79
2022-12-04T06:54:22.821Z,1.80
2022-12-04T06:56:52.005Z,1.83
2022-12-04T06:59:22.322Z,1.81
2022-12-04T07:01:51.359Z,1.81
2022-12-04T07:04:20.082Z,1.81
2022-12-04T07:06:50.382Z,1.81
2022-12-04T07:09:20.033Z,1.78
2022-12-04T07:11:48.735Z,1.79
2022-12-04T07:14:17.453Z,1.83
2022-12-04T07:16:47.591Z,1.82
2022-12-04T07:19:16.388Z,1.82
2022-12-04T07:21:45.500Z,1.80
2022-12-04T07:24:17.288Z,1.78
2022-12-04T07:26:46.390Z,1.78
2022-12-04T07:29:15.337Z,1.81
2022-12-04T07:31:44.987Z,1.85
2022-12-04T07:34:15.145Z,1.84
2022-12-04T07:36:44.078Z,1.84
2022-12-04T07:39:13.033Z,1.86
2022-12-04T07:41:42.063Z,1.88
2022-12-04T07:44:10.770Z,1.89
2022-12-04T07:46:40.150Z,1.89
2022-12-04T07:49:11.497Z,1.87
2022-12-04T07:51:42.027Z,1.88
2022-12-04T07:54:11.327Z,1.87
2022-12-04T07:56:40.268Z,1.89
2022-12-04T07:59:09.635Z,1.94
2022-12-04T08:01:38.435Z,2.00
2022-12-04T08:04:07.571Z,1.98
2022-12-04T08:06:36.562Z,1.93
2022-12-04T08:09:10.152Z,1.97
2022-12-04T08:11:39.639Z,1.99
2022-12-04T08:14:09.620Z,2.00
2022-12-04T08:16:38.432Z,1.99
2022-12-04T08:19:07.252Z,1.97
2022-12-04T08:21:35.922Z,2.00
2022-12-04T08:24:06.152Z,1.98
2022-12-04T08:26:35.526Z,2.02
2022-12-04T08:29:04.334Z,2.00
2022-12-04T08:31:34.995Z,2.04
2022-12-04T08:34:06.275Z,2.05
2022-12-04T08:36:35.570Z,2.05
2022-12-04T08:39:06.265Z,2.03
2022-12-04T08:41:34.985Z,1.99
2022-12-04T08:44:03.843Z,2.00
2022-12-04T08:46:32.511Z,2.00
2022-12-04T08:49:01.369Z,1.99
2022-12-04T08:51:31.762Z,2.00
2022-12-04T08:54:02.340Z,2.01
2022-12-04T08:56:33.470Z,2.06
2022-12-04T08:59:02.926Z,2.04
2022-12-04T09:01:37.328Z,2.04
2022-12-04T09:04:06.381Z,2.04
2022-12-04T09:06:35.122Z,2.04
2022-12-04T09:09:04.336Z,2.06
2022-12-04T09:11:34.537Z,2.06
2022-12-04T09:14:04.091Z,2.05
2022-12-04T09:16:32.961Z,2.05
2022-12-04T09:19:01.630Z,2.06
2022-12-04T09:21:30.403Z,2.06
2022-12-04T09:24:00.932Z,2.09
2022-12-04T09:26:31.356Z,2.10
2022-12-04T09:29:03.317Z,2.14
2022-12-04T09:31:32.908Z,2.14
2022-12-04T09:34:02.621Z,2.13
2022-12-04T09:36:31.748Z,2.13
2022-12-04T09:39:00.633Z,2.15
2022-12-04T09:42:04.937Z,2.12
2022-12-04T09:44:37.656Z,2.13
2022-12-04T09:47:10.680Z,2.19
2022-12-04T09:49:42.447Z,2.17
2022-12-04T09:52:21.845Z,2.20
2022-12-04T09:54:52.279Z,2.19
2022-12-04T09:57:26.036Z,2.21
2022-12-04T09:59:56.627Z,2.23
2022-12-04T10:02:35.985Z,2.22
2022-12-04T10:05:05.918Z,2.22
2022-12-04T10:07:38.203Z,2.19
2022-12-04T10:10:11.630Z,2.20
2022-12-04T10:12:50.779Z,2.26
2022-12-04T10:15:31.052Z,2.23
2022-12-04T10:18:14.772Z,2.27
2022-12-04T10:20:57.521Z,2.28
2022-12-04T10:23:33.913Z,2.26
2022-12-04T10:26:04.419Z,2.24
2022-12-04T10:28:35.273Z,2.23
2022-12-04T10:31:07.500Z,2.22
2022-12-04T10:33:39.931Z,2.20
2022-12-04T10:36:11.462Z,2.22
2022-12-04T10:38:43.716Z,2.24
2022-12-04T10:41:17.602Z,2.20
2022-12-04T10:43:48.333Z,2.19
2022-12-04T10:46:22.658Z,2.20
2022-12-04T10:48:54.267Z,2.24
2022-12-04T10:51:24.093Z,2.27
2022-12-04T10:53:53.343Z,2.28
2022-12-04T10:56:24.318Z,2.33
2022-12-04T10:59:00.771Z,2.36
2022-12-04T11:01:32.778Z,2.32
2022-12-04T11:04:04.942Z,2.35
2022-12-04T11:06:33.758Z,2.37
2022-12-04T11:09:04.378Z,2.40
2022-12-04T11:11:34.935Z,2.40
2022-12-04T11:14:05.917Z,2.39
2022-12-04T11:16:41.990Z,2.38
2022-12-04T11:19:22.522Z,2.38
2022-12-04T11:21:51.924Z,2.38
2022-12-04T11:24:25.922Z,2.38
2022-12-04T11:26:54.916Z,2.37
2022-12-04T11:29:31.822Z,2.38
2022-12-04T11:32:07.414Z,2.37
2022-12-04T11:34:39.124Z,2.37
2022-12-04T11:37:16.687Z,2.39
2022-12-04T11:39:47.179Z,2.36
2022-12-04T11:42:21.149Z,2.37
2022-12-04T11:44:55.283Z,2.35
2022-12-04T11:47:27.429Z,2.32
2022-12-04T11:50:11.325Z,2.34
2022-12-04T11:53:04.810Z,2.37
2022-12-04T11:55:37.821Z,2.36
2022-12-04T11:58:22.163Z,2.35
2022-12-04T12:01:02.829Z,2.38
2022-12-04T12:03:37.395Z,2.38
2022-12-04T12:06:25.501Z,2.39
2022-12-04T12:09:09.904Z,2.41
2022-12-04T12:11:41.853Z,2.39
2022-12-04T12:14:14.612Z,2.41
2022-12-04T12:19:34.823Z,2.38
2022-12-04T12:22:10.111Z,2.39
2022-12-04T12:24:45.576Z,2.37
2022-12-04T12:27:33.243Z,2.38
2022-12-04T12:30:05.864Z,2.41
2022-12-04T12:32:53.873Z,2.42
2022-12-04T12:35:27.954Z,2.43
2022-12-04T12:37:59.721Z,2.42
2022-12-04T12:40:33.135Z,2.45
2022-12-04T12:43:05.797Z,2.43
2022-12-04T12:45:40.723Z,2.42
2022-12-04T12:48:10.567Z,2.44
2022-12-04T12:50:45.653Z,2.46
2022-12-04T12:53:22.494Z,2.46
2022-12-04T12:55:57.989Z,2.50
2022-12-04T12:58:30.314Z,2.44
2022-12-04T13:01:03.963Z,2.42
2022-12-04T13:03:41.385Z,2.43
2022-12-04T13:06:20.005Z,2.43
2022-12-04T13:08:58.388Z,2.41
2022-12-04T13:11:28.717Z,2.43
2022-12-04T13:13:59.802Z,2.41
2022-12-04T13:16:33.554Z,2.40
2022-12-04T13:19:08.719Z,2.41
2022-12-04T13:21:43.356Z,2.42
2022-12-04T13:25:06.094Z,2.41
2022-12-04T13:27:45.347Z,2.41
2022-12-04T13:30:18.086Z,2.41
2022-12-04T13:33:06.376Z,2.44
2022-12-04T13:35:48.770Z,2.45
2022-12-04T13:38:24.584Z,2.45
2022-12-04T13:40:54.824Z,2.47
2022-12-04T13:43:30.302Z,2.49
2022-12-04T13:46:01.293Z,2.51
2022-12-04T13:48:39.835Z,2.49
2022-12-04T13:51:26.674Z,2.49
2022-12-04T13:54:19.519Z,2.47
2022-12-04T13:56:49.682Z,2.50
2022-12-04T13:59:36.434Z,2.49
2022-12-04T14:02:22.946Z,2.51
2022-12-04T14:04:57.610Z,2.49
2022-12-04T14:07:29.839Z,2.48
2022-12-04T14:10:04.555Z,2.50
2022-12-04T14:12:35.941Z,2.51
2022-12-04T14:15:06.768Z,2.51
2022-12-04T14:17:36.967Z,2.51
2022-12-04T14:20:08.919Z,2.52
2022-12-04T14:22:45.321Z,2.51
2022-12-04T14:25:36.497Z,2.50
2022-12-04T14:28:25.817Z,2.47
2022-12-04T14:31:10.070Z,2.44
2022-12-04T14:33:40.576Z,2.41
2022-12-04T14:36:12.618Z,2.42
2022-12-04T14:38:41.601Z,2.41
2022-12-04T14:41:11.585Z,2.42
2022-12-04T14:43:41.542Z,2.44
2022-12-04T14:46:14.070Z,2.46
2022-12-04T14:48:50.080Z,2.45
2022-12-04T14:51:23.046Z,2.44
2022-12-04T14:54:00.193Z,2.47
2022-12-04T14:56:43.652Z,2.47
2022-12-04T14:59:18.201Z,2.48
2022-12-04T15:01:48.538Z,2.49
2022-12-04T15:04:23.491Z,2.49
2022-12-04T15:06:56.778Z,2.48
2022-12-04T15:09:46.892Z,2.48
2022-12-04T15:12:37.563Z,2.48
2022-12-04T15:15:17.366Z,2.49
2022-12-04T15:17:56.241Z,2.49
2022-12-04T15:20:25.638Z,2.48
2022-12-04T15:22:57.330Z,2.46
2022-12-04T15:25:27.762Z,2.46
2022-12-04T15:28:07.920Z,2.48
2022-12-04T15:30:38.621Z,2.50
2022-12-04T15:33:07.500Z,2.49
2022-12-04T15:35:36.190Z,2.51
2022-12-04T15:38:05.145Z,2.50
2022-12-04T15:40:33.827Z,2.51
2022-12-04T15:43:16.699Z,2.52
2022-12-04T15:45:46.130Z,2.52
2022-12-04T15:48:25.745Z,2.53
2022-12-04T15:50:59.277Z,2.54
2022-12-04T15:53:30.752Z,2.54
2022-12-04T15:56:02.581Z,2.54
2022-12-04T15:58:33.684Z,2.54
2022-12-04T16:01:03.848Z,2.52
2022-12-04T16:03:34.527Z,2.50
2022-12-04T16:06:15.828Z,2.51
2022-12-04T16:08:46.300Z,2.50
2022-12-04T16:11:29.901Z,2.52
2022-12-04T16:14:17.427Z,2.52
2022-12-04T16:16:47.785Z,2.53
2022-12-04T16:19:19.483Z,2.54
2022-12-04T16:21:48.282Z,2.56
2022-12-04T16:24:17.008Z,2.54
2022-12-04T16:26:45.874Z,2.53
2022-12-04T16:29:15.956Z,2.53
2022-12-04T16:31:44.899Z,2.54
2022-12-04T16:34:14.427Z,2.52
2022-12-04T16:36:43.740Z,2.54
2022-12-04T16:39:19.278Z,2.52
2022-12-04T16:41:50.296Z,2.51
2022-12-04T16:44:20.961Z,2.51
2022-12-04T16:46:52.681Z,2.52
2022-12-04T16:49:21.601Z,2.53
2022-12-04T16:51:50.790Z,2.53
2022-12-04T16:54:19.841Z,2.52
2022-12-04T16:56:48.655Z,2.52
2022-12-04T16:59:17.287Z,2.52
2022-12-04T17:01:48.962Z,2.53
2022-12-04T17:04:18.332Z,2.52
2022-12-04T17:06:47.800Z,2.51
2022-12-04T17:09:16.922Z,2.50
2022-12-04T17:11:46.022Z,2.48
2022-12-04T17:14:14.975Z,2.50
2022-12-04T17:16:46.766Z,2.48
2022-12-04T17:19:17.074Z,2.47
2022-12-04T17:21:46.193Z,2.47
2022-12-04T17:24:14.967Z,2.44
2022-12-04T17:26:43.620Z,2.44
2022-12-04T17:29:12.225Z,2.43
2022-12-04T17:31:41.027Z,2.44
2022-12-04T17:34:10.016Z,2.46
2022-12-04T17:36:40.282Z,2.48
2022-12-04T17:39:11.809Z,2.48
2022-12-04T17:41:40.575Z,2.47
2022-12-04T17:44:09.490Z,2.45
2022-12-04T17:46:38.295Z,2.42
2022-12-04T17:49:07.613Z,2.40
2022-12-04T17:51:37.012Z,2.38
2022-12-04T17:54:07.695Z,2.37
2022-12-04T17:56:36.478Z,2.36
2022-12-04T17:59:06.964Z,2.36
2022-12-04T18:01:35.935Z,2.29
2022-12-04T18:04:07.283Z,2.28
2022-12-04T18:06:37.927Z,2.26
2022-12-04T18:09:09.289Z,2.24
2022-12-04T18:11:40.161Z,2.28
2022-12-04T18:14:12.235Z,2.25
2022-12-04T18:16:44.644Z,2.24
2022-12-04T18:19:14.295Z,2.24
2022-12-04T18:21:43.081Z,2.27
2022-12-04T18:24:14.002Z,2.27
2022-12-04T18:26:44.233Z,2.28
2022-12-04T18:29:14.629Z,2.26
2022-12-04T18:31:43.737Z,2.28
2022-12-04T18:34:12.557Z,2.18
2022-12-04T18:36:41.967Z,2.14
2022-12-04T18:39:15.865Z,2.16
2022-12-04T18:41:44.840Z,2.07
2022-12-04T18:44:13.988Z,2.08
2022-12-04T18:46:42.999Z,2.08
2022-12-04T18:49:12.626Z,2.12
2022-12-04T18:51:48.362Z,2.10
2022-12-04T18:54:21.148Z,2.02
2022-12-04T18:56:50.040Z,2.05
2022-12-04T18:59:22.277Z,2.07
2022-12-04T19:01:51.488Z,2.02
2022-12-04T19:04:22.309Z,2.03
2022-12-04T19:06:53.406Z,2.04
2022-12-04T19:09:47.074Z,2.00
2022-12-04T19:12:14.465Z,2.02
2022-12-04T19:14:43.230Z,2.01
2022-12-04T19:17:11.946Z,2.03
2022-12-04T19:19:40.781Z,2.05
2022-12-04T19:22:09.602Z,2.04
2022-12-04T19:24:39.948Z,2.08
2022-12-04T19:27:11.858Z,2.09
2022-12-04T19:29:41.032Z,2.10
2022-12-04T19:32:11.299Z,2.07
2022-12-04T19:34:40.361Z,2.12
2022-12-04T19:37:09.583Z,2.10
2022-12-04T19:39:39.959Z,2.10
2022-12-04T19:42:09.280Z,2.10
2022-12-04T19:44:53.770Z,2.11
2022-12-04T19:47:22.742Z,2.09
2022-12-04T19:49:51.582Z,2.09
2022-12-04T19:52:20.358Z,2.12
2022-12-04T19:54:50.582Z,2.13
2022-12-04T19:57:19.392Z,2.10
2022-12-04T19:59:48.171Z,2.12
2022-12-04T20:02:17.152Z,2.16
2022-12-04T20:04:46.103Z,2.13
2022-12-04T20:07:14.834Z,2.14
2022-12-04T20:09:54.658Z,2.16
2022-12-04T20:12:25.055Z,2.15
2022-12-04T20:14:53.825Z,2.16
2022-12-04T20:17:22.466Z,2.13
2022-12-04T20:19:51.114Z,2.13
2022-12-04T20:22:19.825Z,2.10
2022-12-04T20:24:48.571Z,2.12
2022-12-04T20:27:17.303Z,2.09
2022-12-04T20:29:47.639Z,2.10
2022-12-04T20:32:16.302Z,2.07
2022-12-04T20:34:45.136Z,2.14
2022-12-04T20:37:14.027Z,2.11
2022-12-04T20:39:43.084Z,2.07
2022-12-04T20:42:11.974Z,2.07
2022-12-04T20:44:40.913Z,2.03
2022-12-04T20:47:11.074Z,2.03
2022-12-04T20:49:39.735Z,2.03
2022-12-04T20:52:08.756Z,2.05
2022-12-04T20:54:41.293Z,2.06
2022-12-04T20:57:10.894Z,2.07
2022-12-04T20:59:39.715Z,2.09
2022-12-04T21:02:11.057Z,2.05
2022-12-04T21:04:40.602Z,2.08
2022-12-04T21:07:09.469Z,2.06
2022-12-04T21:09:38.365Z,2.06
2022-12-04T21:12:28.463Z,2.08
2022-12-04T21:15:14.754Z,2.08
2022-12-04T21:17:44.757Z,2.11
2022-12-04T21:20:14.029Z,2.14
2022-12-04T21:22:42.625Z,2.14
2022-12-04T21:25:12.356Z,2.14
2022-12-04T21:27:41.136Z,2.14
2022-12-04T21:30:11.004Z,2.16
2022-12-04T21:32:39.741Z,2.18
2022-12-04T21:35:10.676Z,2.20
2022-12-04T21:37:39.379Z,2.20
2022-12-04T21:40:09.711Z,2.22
2022-12-04T21:42:38.802Z,2.23
2022-12-04T21:45:08.903Z,2.23
2022-12-04T21:47:38.208Z,2.24
2022-12-04T21:50:10.726Z,2.24
2022-12-04T21:52:39.513Z,2.27
2022-12-04T21:55:08.800Z,2.27
2022-12-04T21:57:37.420Z,2.28
2022-12-04T22:00:07.369Z,2.28
2022-12-04T22:02:38.016Z,2.26
2022-12-04T22:05:07.093Z,2.28
2022-12-04T22:07:37.168Z,2.30
2022-12-04T22:10:10.618Z,2.30
2022-12-04T22:12:49.414Z,2.30
2022-12-04T22:15:19.534Z,2.31
2022-12-04T22:17:48.291Z,2.33
2022-12-04T22:20:17.470Z,2.33
2022-12-04T22:22:48.240Z,2.32
2022-12-04T22:25:17.108Z,2.34
2022-12-04T22:27:45.778Z,2.33
2022-12-04T22:30:16.015Z,2.36
2022-12-04T22:32:44.759Z,2.32
2022-12-04T22:35:13.419Z,2.34
2022-12-04T22:37:44.491Z,2.35
2022-12-04T22:40:17.123Z,2.36
2022-12-04T22:42:47.405Z,2.37
2022-12-04T22:45:16.536Z,2.33
2022-12-04T22:47:45.315Z,2.36
2022-12-04T22:50:14.104Z,2.35
2022-12-04T22:52:42.819Z,2.31
2022-12-04T22:55:11.515Z,2.28
2022-12-04T22:57:41.991Z,2.29
2022-12-04T23:00:11.490Z,2.23
2022-12-04T23:02:40.124Z,2.23
2022-12-04T23:05:09.160Z,2.23
2022-12-04T23:07:39.487Z,2.18
2022-12-04T23:10:09.262Z,2.18
2022-12-04T23:12:38.283Z,2.18
2022-12-04T23:15:09.604Z,2.15
2022-12-04T23:17:39.260Z,2.14
2022-12-04T23:20:09.246Z,2.14
2022-12-04T23:22:37.863Z,2.12
2022-12-04T23:25:07.509Z,2.09
2022-12-04T23:27:36.658Z,2.10
2022-12-04T23:30:08.039Z,2.08
2022-12-04T23:32:37.035Z,2.11
2022-12-04T23:35:06.185Z,2.10
2022-12-04T23:37:35.106Z,2.06
2022-12-04T23:40:03.807Z,2.07
2022-12-04T23:42:33.085Z,2.04
2022-12-04T23:45:01.725Z,2.03
2022-12-04T23:47:33.782Z,2.02
2022-12-04T23:50:02.660Z,2.07
2022-12-04T23:52:31.934Z,2.01
2022-12-04T23:55:00.562Z,2.01
2022-12-04T23:57:30.691Z,2.04
2022-12-04T23:59:59.593Z,2.00
